sensor_id;sensor_type;location;lat;lon;timestamp;temperature;humidity
22738;DHT22;11536;50.860;4.286;2023-02-28T00:01:02;3.50;99.90
22738;DHT22;11536;50.860;4.286;2023-02-28T00:03:27;3.50;99.90
22738;DHT22;11536;50.860;4.286;2023-02-28T00:05:53;3.40;99.90
22738;DHT22;11536;50.860;4.286;2023-02-28T00:08:18;3.40;99.90
22738;DHT22;11536;50.860;4.286;2023-02-28T00:10:44;3.40;99.90
22738;DHT22;11536;50.860;4.286;2023-02-28T00:13:09;3.30;99.90
22738;DHT22;11536;50.860;4.286;2023-02-28T00:15:36;3.30;99.90
22738;DHT22;11536;50.860;4.286;2023-02-28T00:18:02;3.40;99.90
22738;DHT22;11536;50.860;4.286;2023-02-28T00:20:28;3.30;99.90
22738;DHT22;11536;50.860;4.286;2023-02-28T00:22:55;3.30;99.90
22738;DHT22;11536;50.860;4.286;2023-02-28T00:25:25;3.30;99.90
22738;DHT22;11536;50.860;4.286;2023-02-28T00:27:51;3.40;99.90
22738;DHT22;11536;50.860;4.286;2023-02-28T00:30:21;3.40;99.90
22738;DHT22;11536;50.860;4.286;2023-02-28T00:32:48;3.30;99.90
22738;DHT22;11536;50.860;4.286;2023-02-28T00:35:15;3.30;99.90
22738;DHT22;11536;50.860;4.286;2023-02-28T00:37:41;3.30;99.90
22738;DHT22;11536;50.860;4.286;2023-02-28T00:40:07;3.30;99.90
22738;DHT22;11536;50.860;4.286;2023-02-28T00:42:34;3.30;99.90
22738;DHT22;11536;50.860;4.286;2023-02-28T00:45:00;3.30;99.90
22738;DHT22;11536;50.860;4.286;2023-02-28T00:47:26;3.20;99.90
22738;DHT22;11536;50.860;4.286;2023-02-28T00:49:51;3.20;99.90
22738;DHT22;11536;50.860;4.286;2023-02-28T00:52:17;3.20;99.90
22738;DHT22;11536;50.860;4.286;2023-02-28T00:54:42;3.20;99.90
22738;DHT22;11536;50.860;4.286;2023-02-28T00:57:08;3.20;99.90
22738;DHT22;11536;50.860;4.286;2023-02-28T00:59:34;3.20;99.90
22738;DHT22;11536;50.860;4.286;2023-02-28T01:02:00;3.20;99.90
22738;DHT22;11536;50.860;4.286;2023-02-28T01:04:25;3.20;99.90
22738;DHT22;11536;50.860;4.286;2023-02-28T01:06:51;3.20;99.90
22738;DHT22;11536;50.860;4.286;2023-02-28T01:09:17;3.10;99.90
22738;DHT22;11536;50.860;4.286;2023-02-28T01:11:42;3.20;99.90
22738;DHT22;11536;50.860;4.286;2023-02-28T01:14:12;3.10;99.90
22738;DHT22;11536;50.860;4.286;2023-02-28T01:16:38;3.10;99.90
22738;DHT22;11536;50.860;4.286;2023-02-28T01:19:03;3.10;99.90
22738;DHT22;11536;50.860;4.286;2023-02-28T01:21:29;3.10;99.90
22738;DHT22;11536;50.860;4.286;2023-02-28T01:23:57;3.10;99.90
22738;DHT22;11536;50.860;4.286;2023-02-28T01:26:23;3.00;99.90
22738;DHT22;11536;50.860;4.286;2023-02-28T01:28:50;3.00;99.90
22738;DHT22;11536;50.860;4.286;2023-02-28T01:31:16;3.00;99.90
22738;DHT22;11536;50.860;4.286;2023-02-28T01:33:43;3.00;99.90
22738;DHT22;11536;50.860;4.286;2023-02-28T01:36:14;3.00;99.90
22738;DHT22;11536;50.860;4.286;2023-02-28T01:38:40;2.90;99.90
22738;DHT22;11536;50.860;4.286;2023-02-28T01:41:07;2.90;99.90
22738;DHT22;11536;50.860;4.286;2023-02-28T01:43:57;2.90;99.90
22738;DHT22;11536;50.860;4.286;2023-02-28T01:46:22;2.90;99.90
22738;DHT22;11536;50.860;4.286;2023-02-28T01:48:51;2.90;99.90
22738;DHT22;11536;50.860;4.286;2023-02-28T01:51:41;2.90;99.90
22738;DHT22;11536;50.860;4.286;2023-02-28T01:54:13;2.90;99.90
22738;DHT22;11536;50.860;4.286;2023-02-28T01:56:45;2.90;99.90
22738;DHT22;11536;50.860;4.286;2023-02-28T01:59:19;2.90;99.90
22738;DHT22;11536;50.860;4.286;2023-02-28T02:01:46;2.90;99.90
22738;DHT22;11536;50.860;4.286;2023-02-28T02:04:11;2.80;99.90
22738;DHT22;11536;50.860;4.286;2023-02-28T02:06:42;2.80;99.90
22738;DHT22;11536;50.860;4.286;2023-02-28T02:09:08;2.80;99.90
22738;DHT22;11536;50.860;4.286;2023-02-28T02:11:34;2.70;99.90
22738;DHT22;11536;50.860;4.286;2023-02-28T02:20:07;2.70;99.90
22738;DHT22;11536;50.860;4.286;2023-02-28T02:25:29;2.60;99.90
22738;DHT22;11536;50.860;4.286;2023-02-28T02:28:05;2.60;99.90
22738;DHT22;11536;50.860;4.286;2023-02-28T02:31:14;2.60;99.90
22738;DHT22;11536;50.860;4.286;2023-02-28T02:34:08;2.60;99.90
22738;DHT22;11536;50.860;4.286;2023-02-28T02:36:45;2.70;99.90
22738;DHT22;11536;50.860;4.286;2023-02-28T02:39:27;2.70;99.90
22738;DHT22;11536;50.860;4.286;2023-02-28T02:41:59;2.60;99.90
22738;DHT22;11536;50.860;4.286;2023-02-28T02:44:27;2.70;99.90
22738;DHT22;11536;50.860;4.286;2023-02-28T02:46:59;2.60;99.90
22738;DHT22;11536;50.860;4.286;2023-02-28T02:49:31;2.60;99.90
22738;DHT22;11536;50.860;4.286;2023-02-28T02:52:02;2.60;99.90
22738;DHT22;11536;50.860;4.286;2023-02-28T02:54:31;2.60;99.90
22738;DHT22;11536;50.860;4.286;2023-02-28T02:57:02;2.50;99.90
22738;DHT22;11536;50.860;4.286;2023-02-28T02:59:30;2.50;99.90
22738;DHT22;11536;50.860;4.286;2023-02-28T03:01:59;2.50;99.90
22738;DHT22;11536;50.860;4.286;2023-02-28T03:04:30;2.50;99.90
22738;DHT22;11536;50.860;4.286;2023-02-28T03:06:57;2.40;99.90
22738;DHT22;11536;50.860;4.286;2023-02-28T03:09:24;2.50;99.90
22738;DHT22;11536;50.860;4.286;2023-02-28T03:11:52;2.50;99.90
22738;DHT22;11536;50.860;4.286;2023-02-28T03:17:27;2.40;99.90
22738;DHT22;11536;50.860;4.286;2023-02-28T03:33:17;2.50;99.90
22738;DHT22;11536;50.860;4.286;2023-02-28T03:35:57;2.50;99.90
22738;DHT22;11536;50.860;4.286;2023-02-28T03:38:44;2.50;99.90
22738;DHT22;11536;50.860;4.286;2023-02-28T03:43:58;2.40;99.90
22738;DHT22;11536;50.860;4.286;2023-02-28T03:46:28;2.40;99.90
22738;DHT22;11536;50.860;4.286;2023-02-28T03:49:06;2.40;99.90
22738;DHT22;11536;50.860;4.286;2023-02-28T03:51:35;2.40;99.90
22738;DHT22;11536;50.860;4.286;2023-02-28T03:54:08;2.40;99.90
22738;DHT22;11536;50.860;4.286;2023-02-28T03:56:39;2.40;99.90
22738;DHT22;11536;50.860;4.286;2023-02-28T03:59:17;2.40;99.90
22738;DHT22;11536;50.860;4.286;2023-02-28T04:01:46;2.40;99.90
22738;DHT22;11536;50.860;4.286;2023-02-28T04:04:13;2.40;99.90
22738;DHT22;11536;50.860;4.286;2023-02-28T04:06:39;2.40;99.90
22738;DHT22;11536;50.860;4.286;2023-02-28T04:09:07;2.30;99.90
22738;DHT22;11536;50.860;4.286;2023-02-28T04:11:41;2.30;99.90
22738;DHT22;11536;50.860;4.286;2023-02-28T04:14:08;2.30;99.90
22738;DHT22;11536;50.860;4.286;2023-02-28T04:16:35;2.30;99.90
22738;DHT22;11536;50.860;4.286;2023-02-28T04:19:06;2.30;99.90
22738;DHT22;11536;50.860;4.286;2023-02-28T04:21:37;2.30;99.90
22738;DHT22;11536;50.860;4.286;2023-02-28T04:24:05;2.30;99.90
22738;DHT22;11536;50.860;4.286;2023-02-28T04:26:32;2.30;99.90
22738;DHT22;11536;50.860;4.286;2023-02-28T04:28:59;2.20;99.90
22738;DHT22;11536;50.860;4.286;2023-02-28T04:31:25;2.20;99.90
22738;DHT22;11536;50.860;4.286;2023-02-28T04:33:50;2.20;99.90
22738;DHT22;11536;50.860;4.286;2023-02-28T04:36:16;2.20;99.90
22738;DHT22;11536;50.860;4.286;2023-02-28T04:38:46;2.20;99.90
22738;DHT22;11536;50.860;4.286;2023-02-28T04:41:15;2.20;99.90
22738;DHT22;11536;50.860;4.286;2023-02-28T04:43:41;2.30;99.90
22738;DHT22;11536;50.860;4.286;2023-02-28T04:46:07;2.30;99.90
22738;DHT22;11536;50.860;4.286;2023-02-28T04:48:35;2.20;99.90
22738;DHT22;11536;50.860;4.286;2023-02-28T04:51:02;2.20;99.90
22738;DHT22;11536;50.860;4.286;2023-02-28T04:53:29;2.20;99.90
22738;DHT22;11536;50.860;4.286;2023-02-28T04:55:55;2.10;99.90
22738;DHT22;11536;50.860;4.286;2023-02-28T04:58:21;2.10;99.90
22738;DHT22;11536;50.860;4.286;2023-02-28T05:00:51;2.10;99.90
22738;DHT22;11536;50.860;4.286;2023-02-28T05:03:16;2.10;99.90
22738;DHT22;11536;50.860;4.286;2023-02-28T05:05:42;2.00;99.90
22738;DHT22;11536;50.860;4.286;2023-02-28T05:08:07;2.10;99.90
22738;DHT22;11536;50.860;4.286;2023-02-28T05:10:35;2.10;99.90
22738;DHT22;11536;50.860;4.286;2023-02-28T05:13:00;2.00;99.90
22738;DHT22;11536;50.860;4.286;2023-02-28T05:15:26;2.00;99.90
22738;DHT22;11536;50.860;4.286;2023-02-28T05:17:52;2.20;99.90
22738;DHT22;11536;50.860;4.286;2023-02-28T05:20:17;2.10;99.90
22738;DHT22;11536;50.860;4.286;2023-02-28T05:22:43;2.10;99.90
22738;DHT22;11536;50.860;4.286;2023-02-28T05:25:13;2.10;99.90
22738;DHT22;11536;50.860;4.286;2023-02-28T05:27:41;2.10;99.90
22738;DHT22;11536;50.860;4.286;2023-02-28T05:30:07;2.10;99.90
22738;DHT22;11536;50.860;4.286;2023-02-28T05:32:39;2.10;99.90
22738;DHT22;11536;50.860;4.286;2023-02-28T05:35:09;2.20;99.90
22738;DHT22;11536;50.860;4.286;2023-02-28T05:37:34;2.20;99.90
22738;DHT22;11536;50.860;4.286;2023-02-28T05:40:00;2.10;99.90
22738;DHT22;11536;50.860;4.286;2023-02-28T05:42:26;2.30;99.90
22738;DHT22;11536;50.860;4.286;2023-02-28T05:44:51;2.20;99.90
22738;DHT22;11536;50.860;4.286;2023-02-28T05:47:17;2.20;99.90
22738;DHT22;11536;50.860;4.286;2023-02-28T05:49:43;2.20;99.90
22738;DHT22;11536;50.860;4.286;2023-02-28T05:52:08;2.20;99.90
22738;DHT22;11536;50.860;4.286;2023-02-28T05:54:34;2.20;99.90
22738;DHT22;11536;50.860;4.286;2023-02-28T05:57:00;2.20;99.90
22738;DHT22;11536;50.860;4.286;2023-02-28T05:59:25;2.20;99.90
22738;DHT22;11536;50.860;4.286;2023-02-28T06:01:51;2.20;99.90
22738;DHT22;11536;50.860;4.286;2023-02-28T06:04:19;2.20;99.90
22738;DHT22;11536;50.860;4.286;2023-02-28T06:06:47;2.30;99.90
22738;DHT22;11536;50.860;4.286;2023-02-28T06:09:12;2.30;99.90
22738;DHT22;11536;50.860;4.286;2023-02-28T06:11:38;2.20;99.90
22738;DHT22;11536;50.860;4.286;2023-02-28T06:14:05;2.30;99.90
22738;DHT22;11536;50.860;4.286;2023-02-28T06:16:36;2.30;99.90
22738;DHT22;11536;50.860;4.286;2023-02-28T06:19:03;2.30;99.90
22738;DHT22;11536;50.860;4.286;2023-02-28T06:21:29;2.30;99.90
22738;DHT22;11536;50.860;4.286;2023-02-28T06:23:56;2.30;99.90
22738;DHT22;11536;50.860;4.286;2023-02-28T06:26:22;2.30;99.90
22738;DHT22;11536;50.860;4.286;2023-02-28T06:28:48;2.30;99.90
22738;DHT22;11536;50.860;4.286;2023-02-28T06:31:16;2.40;99.90
22738;DHT22;11536;50.860;4.286;2023-02-28T06:33:42;2.40;99.90
22738;DHT22;11536;50.860;4.286;2023-02-28T06:36:09;2.40;99.90
22738;DHT22;11536;50.860;4.286;2023-02-28T06:38:36;2.50;99.90
22738;DHT22;11536;50.860;4.286;2023-02-28T06:41:02;2.50;99.90
22738;DHT22;11536;50.860;4.286;2023-02-28T06:43:34;2.50;99.90
22738;DHT22;11536;50.860;4.286;2023-02-28T06:46:02;2.50;99.90
22738;DHT22;11536;50.860;4.286;2023-02-28T06:48:28;2.60;99.90
22738;DHT22;11536;50.860;4.286;2023-02-28T06:51:03;2.60;99.90
22738;DHT22;11536;50.860;4.286;2023-02-28T06:53:28;2.60;99.90
22738;DHT22;11536;50.860;4.286;2023-02-28T06:55:54;2.60;99.90
22738;DHT22;11536;50.860;4.286;2023-02-28T06:58:20;2.60;99.90
22738;DHT22;11536;50.860;4.286;2023-02-28T07:00:50;2.60;99.90
22738;DHT22;11536;50.860;4.286;2023-02-28T07:03:15;2.60;99.90
22738;DHT22;11536;50.860;4.286;2023-02-28T07:05:41;2.60;99.90
22738;DHT22;11536;50.860;4.286;2023-02-28T07:08:07;2.60;99.90
22738;DHT22;11536;50.860;4.286;2023-02-28T07:10:33;2.60;99.90
22738;DHT22;11536;50.860;4.286;2023-02-28T07:13:00;2.60;99.90
22738;DHT22;11536;50.860;4.286;2023-02-28T07:15:25;2.60;99.90
22738;DHT22;11536;50.860;4.286;2023-02-28T07:17:51;2.60;99.90
22738;DHT22;11536;50.860;4.286;2023-02-28T07:20:17;2.60;99.90
22738;DHT22;11536;50.860;4.286;2023-02-28T07:22:43;2.70;99.90
22738;DHT22;11536;50.860;4.286;2023-02-28T07:25:08;2.70;99.90
22738;DHT22;11536;50.860;4.286;2023-02-28T07:27:34;2.70;99.90
22738;DHT22;11536;50.860;4.286;2023-02-28T07:30:00;2.70;99.90
22738;DHT22;11536;50.860;4.286;2023-02-28T07:32:29;2.70;99.90
22738;DHT22;11536;50.860;4.286;2023-02-28T07:34:55;2.70;99.90
22738;DHT22;11536;50.860;4.286;2023-02-28T07:37:21;2.70;99.90
22738;DHT22;11536;50.860;4.286;2023-02-28T07:39:47;2.80;99.90
22738;DHT22;11536;50.860;4.286;2023-02-28T07:42:13;2.80;99.90
22738;DHT22;11536;50.860;4.286;2023-02-28T07:44:39;2.90;99.90
22738;DHT22;11536;50.860;4.286;2023-02-28T07:47:09;2.90;99.90
22738;DHT22;11536;50.860;4.286;2023-02-28T07:49:38;2.90;99.90
22738;DHT22;11536;50.860;4.286;2023-02-28T07:52:05;2.90;99.90
22738;DHT22;11536;50.860;4.286;2023-02-28T07:54:31;3.00;99.90
22738;DHT22;11536;50.860;4.286;2023-02-28T07:56:57;3.00;99.90
22738;DHT22;11536;50.860;4.286;2023-02-28T07:59:23;3.00;99.90
22738;DHT22;11536;50.860;4.286;2023-02-28T08:01:49;3.10;99.90
22738;DHT22;11536;50.860;4.286;2023-02-28T08:04:16;3.10;99.90
22738;DHT22;11536;50.860;4.286;2023-02-28T08:06:42;3.10;99.90
22738;DHT22;11536;50.860;4.286;2023-02-28T08:09:08;3.10;99.90
22738;DHT22;11536;50.860;4.286;2023-02-28T08:11:33;3.10;99.90
22738;DHT22;11536;50.860;4.286;2023-02-28T08:13:59;3.20;99.90
22738;DHT22;11536;50.860;4.286;2023-02-28T08:16:25;3.20;99.90
22738;DHT22;11536;50.860;4.286;2023-02-28T08:18:51;3.30;99.90
22738;DHT22;11536;50.860;4.286;2023-02-28T08:21:18;3.30;99.90
22738;DHT22;11536;50.860;4.286;2023-02-28T08:23:47;3.30;99.90
22738;DHT22;11536;50.860;4.286;2023-02-28T08:26:13;3.40;99.90
22738;DHT22;11536;50.860;4.286;2023-02-28T08:28:38;3.40;99.90
22738;DHT22;11536;50.860;4.286;2023-02-28T08:31:13;3.50;99.90
22738;DHT22;11536;50.860;4.286;2023-02-28T08:33:40;3.40;99.90
22738;DHT22;11536;50.860;4.286;2023-02-28T08:36:07;3.50;99.90
22738;DHT22;11536;50.860;4.286;2023-02-28T08:38:34;3.50;99.90
22738;DHT22;11536;50.860;4.286;2023-02-28T08:41:02;3.60;99.90
22738;DHT22;11536;50.860;4.286;2023-02-28T08:43:29;3.60;99.90
22738;DHT22;11536;50.860;4.286;2023-02-28T08:45:55;3.60;99.90
22738;DHT22;11536;50.860;4.286;2023-02-28T08:48:23;3.60;99.90
22738;DHT22;11536;50.860;4.286;2023-02-28T08:50:58;3.60;99.90
22738;DHT22;11536;50.860;4.286;2023-02-28T08:53:24;3.60;99.90
22738;DHT22;11536;50.860;4.286;2023-02-28T08:56:07;3.60;99.90
22738;DHT22;11536;50.860;4.286;2023-02-28T08:58:34;3.60;99.90
22738;DHT22;11536;50.860;4.286;2023-02-28T09:01:00;3.70;99.90
22738;DHT22;11536;50.860;4.286;2023-02-28T09:03:26;3.70;99.90
22738;DHT22;11536;50.860;4.286;2023-02-28T09:05:59;3.70;99.90
22738;DHT22;11536;50.860;4.286;2023-02-28T09:08:27;3.70;99.90
22738;DHT22;11536;50.860;4.286;2023-02-28T09:10:53;3.70;99.90
22738;DHT22;11536;50.860;4.286;2023-02-28T09:13:20;3.70;99.90
22738;DHT22;11536;50.860;4.286;2023-02-28T09:15:45;3.70;99.90
22738;DHT22;11536;50.860;4.286;2023-02-28T09:18:11;3.80;99.90
22738;DHT22;11536;50.860;4.286;2023-02-28T09:20:38;3.80;99.90
22738;DHT22;11536;50.860;4.286;2023-02-28T09:23:07;3.80;99.90
22738;DHT22;11536;50.860;4.286;2023-02-28T09:25:33;3.70;99.90
22738;DHT22;11536;50.860;4.286;2023-02-28T09:27:59;3.80;99.90
22738;DHT22;11536;50.860;4.286;2023-02-28T09:30:25;3.80;99.90
22738;DHT22;11536;50.860;4.286;2023-02-28T09:32:50;3.80;99.90
22738;DHT22;11536;50.860;4.286;2023-02-28T09:35:18;3.90;99.90
22738;DHT22;11536;50.860;4.286;2023-02-28T09:37:44;3.90;99.90
22738;DHT22;11536;50.860;4.286;2023-02-28T09:40:12;3.90;99.90
22738;DHT22;11536;50.860;4.286;2023-02-28T09:42:38;3.90;99.90
22738;DHT22;11536;50.860;4.286;2023-02-28T09:45:28;3.90;99.90
22738;DHT22;11536;50.860;4.286;2023-02-28T09:47:56;4.00;99.90
22738;DHT22;11536;50.860;4.286;2023-02-28T09:50:35;4.00;99.90
22738;DHT22;11536;50.860;4.286;2023-02-28T09:53:18;4.00;99.90
22738;DHT22;11536;50.860;4.286;2023-02-28T09:55:57;3.90;99.90
22738;DHT22;11536;50.860;4.286;2023-02-28T09:58:49;3.90;99.90
22738;DHT22;11536;50.860;4.286;2023-02-28T10:01:34;3.90;99.90
22738;DHT22;11536;50.860;4.286;2023-02-28T10:06:54;4.00;99.90
22738;DHT22;11536;50.860;4.286;2023-02-28T10:09:30;4.00;99.90
22738;DHT22;11536;50.860;4.286;2023-02-28T10:12:04;4.00;99.90
22738;DHT22;11536;50.860;4.286;2023-02-28T10:14:33;4.10;99.90
22738;DHT22;11536;50.860;4.286;2023-02-28T10:17:56;4.10;99.90
22738;DHT22;11536;50.860;4.286;2023-02-28T10:20:13;4.10;99.90
22738;DHT22;11536;50.860;4.286;2023-02-28T10:23:07;4.10;99.70
22738;DHT22;11536;50.860;4.286;2023-02-28T10:25:36;4.10;99.10
22738;DHT22;11536;50.860;4.286;2023-02-28T10:28:14;4.10;99.80
22738;DHT22;11536;50.860;4.286;2023-02-28T10:30:47;4.10;99.70
22738;DHT22;11536;50.860;4.286;2023-02-28T10:35:50;4.20;99.80
22738;DHT22;11536;50.860;4.286;2023-02-28T10:38:21;4.30;99.30
22738;DHT22;11536;50.860;4.286;2023-02-28T10:40:47;4.30;98.90
22738;DHT22;11536;50.860;4.286;2023-02-28T10:45:39;4.30;98.80
22738;DHT22;11536;50.860;4.286;2023-02-28T10:55:41;4.40;97.80
22738;DHT22;11536;50.860;4.286;2023-02-28T10:58:28;4.40;98.50
22738;DHT22;11536;50.860;4.286;2023-02-28T11:00:54;4.50;98.80
22738;DHT22;11536;50.860;4.286;2023-02-28T11:03:32;4.50;97.90
22738;DHT22;11536;50.860;4.286;2023-02-28T11:06:04;4.60;97.70
22738;DHT22;11536;50.860;4.286;2023-02-28T11:08:30;4.60;97.20
22738;DHT22;11536;50.860;4.286;2023-02-28T11:10:58;4.60;96.50
22738;DHT22;11536;50.860;4.286;2023-02-28T11:13:34;4.70;97.10
22738;DHT22;11536;50.860;4.286;2023-02-28T11:16:04;4.70;97.70
22738;DHT22;11536;50.860;4.286;2023-02-28T11:19:15;4.70;97.20
22738;DHT22;11536;50.860;4.286;2023-02-28T11:21:31;4.70;98.50
22738;DHT22;11536;50.860;4.286;2023-02-28T11:24:25;4.80;98.60
22738;DHT22;11536;50.860;4.286;2023-02-28T11:26:52;4.80;97.20
22738;DHT22;11536;50.860;4.286;2023-02-28T11:34:35;5.00;98.20
22738;DHT22;11536;50.860;4.286;2023-02-28T11:37:02;5.00;98.60
22738;DHT22;11536;50.860;4.286;2023-02-28T11:39:32;5.00;98.00
22738;DHT22;11536;50.860;4.286;2023-02-28T11:53:14;4.90;95.50
22738;DHT22;11536;50.860;4.286;2023-02-28T11:55:46;4.80;96.60
22738;DHT22;11536;50.860;4.286;2023-02-28T12:14:16;5.10;95.60
22738;DHT22;11536;50.860;4.286;2023-02-28T12:16:59;5.20;95.80
22738;DHT22;11536;50.860;4.286;2023-02-28T12:19:54;5.30;96.60
22738;DHT22;11536;50.860;4.286;2023-02-28T12:25:32;5.40;96.10
22738;DHT22;11536;50.860;4.286;2023-02-28T12:28:02;5.40;96.40
22738;DHT22;11536;50.860;4.286;2023-02-28T12:30:34;5.40;95.40
22738;DHT22;11536;50.860;4.286;2023-02-28T12:33:14;5.50;95.00
22738;DHT22;11536;50.860;4.286;2023-02-28T12:35:49;5.50;96.00
22738;DHT22;11536;50.860;4.286;2023-02-28T12:38:25;5.70;97.20
22738;DHT22;11536;50.860;4.286;2023-02-28T12:43:37;6.10;96.30
22738;DHT22;11536;50.860;4.286;2023-02-28T12:46:12;6.10;96.00
22738;DHT22;11536;50.860;4.286;2023-02-28T12:48:55;6.20;95.50
22738;DHT22;11536;50.860;4.286;2023-02-28T12:51:23;6.30;95.80
22738;DHT22;11536;50.860;4.286;2023-02-28T12:54:07;6.40;93.80
22738;DHT22;11536;50.860;4.286;2023-02-28T12:59:33;6.50;95.70
22738;DHT22;11536;50.860;4.286;2023-02-28T13:02:09;6.70;94.00
22738;DHT22;11536;50.860;4.286;2023-02-28T13:10:18;6.80;95.50
22738;DHT22;11536;50.860;4.286;2023-02-28T13:12:49;7.00;95.10
22738;DHT22;11536;50.860;4.286;2023-02-28T13:15:22;7.00;93.30
22738;DHT22;11536;50.860;4.286;2023-02-28T13:17:51;7.00;93.80
22738;DHT22;11536;50.860;4.286;2023-02-28T13:20:35;7.00;93.60
22738;DHT22;11536;50.860;4.286;2023-02-28T13:23:02;7.10;93.50
22738;DHT22;11536;50.860;4.286;2023-02-28T13:28:00;7.10;91.30
22738;DHT22;11536;50.860;4.286;2023-02-28T13:33:29;7.00;92.20
22738;DHT22;11536;50.860;4.286;2023-02-28T13:36:08;7.00;91.70
22738;DHT22;11536;50.860;4.286;2023-02-28T13:38:40;7.00;92.10
22738;DHT22;11536;50.860;4.286;2023-02-28T13:46:26;7.10;92.80
22738;DHT22;11536;50.860;4.286;2023-02-28T13:48:51;7.30;92.10
22738;DHT22;11536;50.860;4.286;2023-02-28T13:52:11;7.20;91.10
22738;DHT22;11536;50.860;4.286;2023-02-28T14:05:20;7.40;91.90
22738;DHT22;11536;50.860;4.286;2023-02-28T14:07:59;7.40;91.50
22738;DHT22;11536;50.860;4.286;2023-02-28T14:10:37;7.30;92.00
22738;DHT22;11536;50.860;4.286;2023-02-28T14:13:42;7.30;90.50
22738;DHT22;11536;50.860;4.286;2023-02-28T14:16:20;7.10;90.50
22738;DHT22;11536;50.860;4.286;2023-02-28T14:18:56;7.10;91.40
22738;DHT22;11536;50.860;4.286;2023-02-28T14:21:47;7.10;90.90
22738;DHT22;11536;50.860;4.286;2023-02-28T14:27:11;7.20;91.70
22738;DHT22;11536;50.860;4.286;2023-02-28T14:30:03;7.10;91.50
22738;DHT22;11536;50.860;4.286;2023-02-28T14:35:43;7.20;91.00
22738;DHT22;11536;50.860;4.286;2023-02-28T14:38:19;7.10;90.90
22738;DHT22;11536;50.860;4.286;2023-02-28T14:40:47;7.00;91.00
22738;DHT22;11536;50.860;4.286;2023-02-28T14:43:25;7.00;92.50
22738;DHT22;11536;50.860;4.286;2023-02-28T14:46:02;7.20;93.50
22738;DHT22;11536;50.860;4.286;2023-02-28T14:48:29;7.20;92.40
22738;DHT22;11536;50.860;4.286;2023-02-28T14:50:57;7.20;91.10
22738;DHT22;11536;50.860;4.286;2023-02-28T14:53:29;7.00;91.00
22738;DHT22;11536;50.860;4.286;2023-02-28T14:55:55;6.90;91.00
22738;DHT22;11536;50.860;4.286;2023-02-28T14:58:30;6.90;92.10
22738;DHT22;11536;50.860;4.286;2023-02-28T15:00:59;6.80;90.30
22738;DHT22;11536;50.860;4.286;2023-02-28T15:03:39;6.70;90.50
22738;DHT22;11536;50.860;4.286;2023-02-28T15:06:15;6.50;90.10
22738;DHT22;11536;50.860;4.286;2023-02-28T15:08:43;6.50;91.50
22738;DHT22;11536;50.860;4.286;2023-02-28T15:11:13;6.60;92.40
22738;DHT22;11536;50.860;4.286;2023-02-28T15:13:43;6.60;91.40
22738;DHT22;11536;50.860;4.286;2023-02-28T15:16:19;6.60;91.30
22738;DHT22;11536;50.860;4.286;2023-02-28T15:18:52;6.50;90.60
22738;DHT22;11536;50.860;4.286;2023-02-28T15:21:23;6.50;91.10
22738;DHT22;11536;50.860;4.286;2023-02-28T15:24:10;6.40;90.40
22738;DHT22;11536;50.860;4.286;2023-02-28T15:26:42;6.40;90.90
22738;DHT22;11536;50.860;4.286;2023-02-28T15:29:15;6.40;92.50
22738;DHT22;11536;50.860;4.286;2023-02-28T15:31:53;6.50;92.80
22738;DHT22;11536;50.860;4.286;2023-02-28T15:36:58;6.60;91.90
22738;DHT22;11536;50.860;4.286;2023-02-28T15:39:27;6.60;92.10
22738;DHT22;11536;50.860;4.286;2023-02-28T15:42:10;6.60;92.00
22738;DHT22;11536;50.860;4.286;2023-02-28T15:44:36;6.50;91.40
22738;DHT22;11536;50.860;4.286;2023-02-28T15:47:14;6.50;91.60
22738;DHT22;11536;50.860;4.286;2023-02-28T15:49:50;6.50;91.70
22738;DHT22;11536;50.860;4.286;2023-02-28T15:52:34;6.40;91.60
22738;DHT22;11536;50.860;4.286;2023-02-28T15:55:22;6.40;91.40
22738;DHT22;11536;50.860;4.286;2023-02-28T15:57:51;6.40;91.70
22738;DHT22;11536;50.860;4.286;2023-02-28T16:00:26;6.40;91.90
22738;DHT22;11536;50.860;4.286;2023-02-28T16:02:55;6.40;91.90
22738;DHT22;11536;50.860;4.286;2023-02-28T16:05:24;6.50;91.80
22738;DHT22;11536;50.860;4.286;2023-02-28T16:08:06;6.40;92.00
22738;DHT22;11536;50.860;4.286;2023-02-28T16:10:36;6.40;92.10
22738;DHT22;11536;50.860;4.286;2023-02-28T16:13:02;6.40;92.50
22738;DHT22;11536;50.860;4.286;2023-02-28T16:15:35;6.40;92.50
22738;DHT22;11536;50.860;4.286;2023-02-28T16:18:10;6.40;92.40
22738;DHT22;11536;50.860;4.286;2023-02-28T16:20:36;6.30;91.60
22738;DHT22;11536;50.860;4.286;2023-02-28T16:23:01;6.30;91.90
22738;DHT22;11536;50.860;4.286;2023-02-28T16:25:39;6.30;92.20
22738;DHT22;11536;50.860;4.286;2023-02-28T16:28:15;6.30;92.30
22738;DHT22;11536;50.860;4.286;2023-02-28T16:30:43;6.30;92.50
22738;DHT22;11536;50.860;4.286;2023-02-28T16:33:09;6.20;92.00
22738;DHT22;11536;50.860;4.286;2023-02-28T16:35:34;6.20;92.40
22738;DHT22;11536;50.860;4.286;2023-02-28T16:38:00;6.20;91.60
22738;DHT22;11536;50.860;4.286;2023-02-28T16:40:26;6.10;92.20
22738;DHT22;11536;50.860;4.286;2023-02-28T16:42:57;6.10;92.50
22738;DHT22;11536;50.860;4.286;2023-02-28T16:45:26;6.10;92.00
22738;DHT22;11536;50.860;4.286;2023-02-28T16:47:54;6.00;92.80
22738;DHT22;11536;50.860;4.286;2023-02-28T16:50:29;6.10;92.90
22738;DHT22;11536;50.860;4.286;2023-02-28T16:52:58;6.10;92.30
22738;DHT22;11536;50.860;4.286;2023-02-28T16:55:25;6.00;92.80
22738;DHT22;11536;50.860;4.286;2023-02-28T16:57:56;6.10;92.60
22738;DHT22;11536;50.860;4.286;2023-02-28T17:00:23;6.00;92.20
22738;DHT22;11536;50.860;4.286;2023-02-28T17:02:50;6.00;92.40
22738;DHT22;11536;50.860;4.286;2023-02-28T17:05:16;6.00;92.60
22738;DHT22;11536;50.860;4.286;2023-02-28T17:07:43;6.00;93.10
22738;DHT22;11536;50.860;4.286;2023-02-28T17:10:14;6.00;92.80
22738;DHT22;11536;50.860;4.286;2023-02-28T17:12:40;6.10;93.10
22738;DHT22;11536;50.860;4.286;2023-02-28T17:15:06;6.10;93.80
22738;DHT22;11536;50.860;4.286;2023-02-28T17:17:33;6.00;92.50
22738;DHT22;11536;50.860;4.286;2023-02-28T17:19:58;6.00;92.70
22738;DHT22;11536;50.860;4.286;2023-02-28T17:22:24;5.90;93.00
22738;DHT22;11536;50.860;4.286;2023-02-28T17:24:51;5.90;93.10
22738;DHT22;11536;50.860;4.286;2023-02-28T17:27:20;5.90;93.20
22738;DHT22;11536;50.860;4.286;2023-02-28T17:29:46;5.90;93.00
22738;DHT22;11536;50.860;4.286;2023-02-28T17:32:12;5.90;93.10
22738;DHT22;11536;50.860;4.286;2023-02-28T17:34:38;5.90;93.30
22738;DHT22;11536;50.860;4.286;2023-02-28T17:37:03;5.90;93.10
22738;DHT22;11536;50.860;4.286;2023-02-28T17:39:29;5.90;93.40
22738;DHT22;11536;50.860;4.286;2023-02-28T17:41:56;5.90;93.70
22738;DHT22;11536;50.860;4.286;2023-02-28T17:44:23;5.90;94.10
22738;DHT22;11536;50.860;4.286;2023-02-28T17:46:49;5.90;93.80
22738;DHT22;11536;50.860;4.286;2023-02-28T17:49:16;5.90;94.00
22738;DHT22;11536;50.860;4.286;2023-02-28T17:51:42;6.00;94.10
22738;DHT22;11536;50.860;4.286;2023-02-28T17:54:10;6.00;93.70
22738;DHT22;11536;50.860;4.286;2023-02-28T17:56:36;6.00;94.10
22738;DHT22;11536;50.860;4.286;2023-02-28T17:59:02;6.00;94.20
22738;DHT22;11536;50.860;4.286;2023-02-28T18:01:28;6.00;94.00
22738;DHT22;11536;50.860;4.286;2023-02-28T18:03:54;5.90;94.30